Time;durP1;ratioP1;P1;durP2;ratioP2;P2;SDS_P1;SDS_P2;PMS_P1;PMS_P2;Temp;Humidity;BMP_temperature;BMP_pressure;BME280_temperature;BME280_humidity;BME280_pressure;Samples;Min_cycle;Max_cycle;Signal;HPM_P1;HPM_P2
2023/07/19 00:01:43;;;;;;;1.30;1.20;;;19.70;88.00;;;;;;5050356;28;20278;-66
2023/07/19 00:04:12;;;;;;;0.98;0.98;;;19.70;88.00;;;;;;5038056;28;20695;-66
2023/07/19 00:06:39;;;;;;;1.10;1.00;;;19.70;88.00;;;;;;5048042;28;20275;-65
2023/07/19 00:09:06;;;;;;;1.10;1.00;;;19.70;88.10;;;;;;5049723;28;20198;-64
2023/07/19 00:11:33;;;;;;;1.05;1.05;;;19.70;88.20;;;;;;5032461;28;20271;-65
2023/07/19 00:14:05;;;;;;;0.88;0.88;;;19.70;88.30;;;;;;5049632;28;20206;-65
2023/07/19 00:16:34;;;;;;;0.95;0.95;;;19.70;88.10;;;;;;5031918;28;20244;-66
2023/07/19 00:19:01;;;;;;;1.13;1.02;;;19.70;88.10;;;;;;5037136;28;20193;-65
2023/07/19 00:21:28;;;;;;;1.20;1.10;;;19.70;88.30;;;;;;5047586;28;20283;-66
2023/07/19 00:23:55;;;;;;;1.10;1.00;;;19.60;88.30;;;;;;5031607;28;20260;-66
2023/07/19 00:26:22;;;;;;;1.10;1.10;;;19.60;88.40;;;;;;5050120;28;20193;-66
2023/07/19 00:28:49;;;;;;;1.08;0.98;;;19.60;88.50;;;;;;5048807;28;20201;-66
2023/07/19 00:31:16;;;;;;;1.42;1.20;;;19.60;88.60;;;;;;5049601;28;20224;-66
2023/07/19 00:33:45;;;;;;;1.83;1.30;;;19.60;88.70;;;;;;5031643;28;20544;-65
2023/07/19 00:36:12;;;;;;;1.40;1.15;;;19.50;88.70;;;;;;5049000;28;20264;-66
2023/07/19 00:38:40;;;;;;;1.45;1.23;;;19.50;88.90;;;;;;5049492;28;20197;-66
2023/07/19 00:41:09;;;;;;;1.00;1.00;;;19.50;88.80;;;;;;5031414;28;20290;-66
2023/07/19 00:43:37;;;;;;;1.30;1.20;;;19.40;88.50;;;;;;5049172;28;20260;-65
2023/07/19 00:46:04;;;;;;;1.60;1.30;;;19.40;88.70;;;;;;5049681;28;20205;-66
2023/07/19 00:48:31;;;;;;;1.52;1.20;;;19.30;88.80;;;;;;5022804;28;20213;-66
2023/07/19 00:51:01;;;;;;;1.42;1.20;;;19.30;88.90;;;;;;5046030;28;20294;-66
2023/07/19 00:53:29;;;;;;;1.20;1.10;;;19.30;88.90;;;;;;5048606;28;20267;-66
2023/07/19 00:55:58;;;;;;;2.17;1.42;;;19.30;89.10;;;;;;5047193;28;20194;-66
2023/07/19 00:58:25;;;;;;;1.13;1.13;;;19.30;89.00;;;;;;5049007;28;20285;-65
2023/07/19 01:00:53;;;;;;;1.10;1.05;;;19.30;89.10;;;;;;5049716;28;20198;-66
2023/07/19 01:03:21;;;;;;;1.00;1.00;;;19.30;89.10;;;;;;5048437;28;20201;-65
2023/07/19 01:05:48;;;;;;;0.93;0.93;;;19.30;89.10;;;;;;5037330;28;20625;-66
2023/07/19 01:08:18;;;;;;;0.90;0.90;;;19.20;89.10;;;;;;5030779;28;20220;-66
2023/07/19 01:10:45;;;;;;;1.10;1.00;;;19.10;89.10;;;;;;5049600;28;20263;-66
2023/07/19 01:13:13;;;;;;;1.10;1.00;;;19.20;89.30;;;;;;5049005;28;20210;-66
2023/07/19 01:15:41;;;;;;;0.90;0.90;;;19.10;90.00;;;;;;5049455;28;20201;-66
2023/07/19 01:18:08;;;;;;;1.00;1.00;;;19.20;89.50;;;;;;5040326;28;20348;-66
2023/07/19 01:20:35;;;;;;;1.05;1.00;;;19.10;89.50;;;;;;5041108;28;20285;-66
2023/07/19 01:23:04;;;;;;;1.00;1.00;;;19.10;89.50;;;;;;5048863;28;20194;-66
2023/07/19 01:25:32;;;;;;;1.30;1.20;;;19.20;89.70;;;;;;5029854;28;20202;-67
2023/07/19 01:28:00;;;;;;;2.30;1.20;;;19.20;89.80;;;;;;5031302;28;20217;-66
2023/07/19 01:30:27;;;;;;;2.20;1.90;;;19.20;89.90;;;;;;5036174;28;20355;-66
2023/07/19 01:32:54;;;;;;;1.75;1.65;;;19.20;90.00;;;;;;5048432;28;20660;-66
2023/07/19 01:35:21;;;;;;;1.77;1.67;;;19.20;90.00;;;;;;5034872;28;20225;-66
2023/07/19 01:37:49;;;;;;;3.28;1.60;;;19.20;90.00;;;;;;5048613;28;20236;-66
2023/07/19 01:40:17;;;;;;;1.50;1.40;;;19.20;90.00;;;;;;5033466;28;20248;-66
2023/07/19 01:42:44;;;;;;;1.77;1.27;;;19.20;90.00;;;;;;5048990;28;20186;-66
2023/07/19 01:45:11;;;;;;;1.40;1.30;;;19.10;90.00;;;;;;5048911;28;20201;-66
2023/07/19 01:47:38;;;;;;;1.10;1.10;;;19.10;90.00;;;;;;5048486;28;20591;-66
2023/07/19 01:50:06;;;;;;;0.90;0.90;;;19.10;90.10;;;;;;5048751;28;20210;-65
2023/07/19 01:52:34;;;;;;;1.10;1.00;;;19.10;90.10;;;;;;5023880;28;20221;-64
2023/07/19 01:55:01;;;;;;;1.00;1.00;;;19.10;90.10;;;;;;5049895;28;20255;-64
2023/07/19 01:57:30;;;;;;;1.00;1.00;;;19.10;90.20;;;;;;5044266;28;20297;-65
2023/07/19 01:59:58;;;;;;;0.90;0.90;;;19.10;90.20;;;;;;5033780;28;20222;-65
2023/07/19 02:02:25;;;;;;;0.90;0.90;;;19.10;90.20;;;;;;5030363;28;20205;-65
2023/07/19 02:04:52;;;;;;;1.30;1.20;;;19.10;90.30;;;;;;5032671;28;20198;-66
2023/07/19 02:07:19;;;;;;;1.27;1.05;;;19.10;90.30;;;;;;5048359;28;20692;-65
2023/07/19 02:09:46;;;;;;;0.82;0.82;;;19.10;90.30;;;;;;5031606;28;20222;-65
2023/07/19 02:12:13;;;;;;;0.90;0.90;;;19.10;90.30;;;;;;5048725;28;20210;-67
2023/07/19 02:14:42;;;;;;;0.80;0.80;;;19.10;90.30;;;;;;5030541;28;20297;-66
2023/07/19 02:17:10;;;;;;;0.82;0.77;;;19.10;90.30;;;;;;5030683;28;20234;-67
2023/07/19 02:19:39;;;;;;;0.85;0.80;;;19.10;90.40;;;;;;5048577;28;20285;-66
2023/07/19 02:22:06;;;;;;;0.70;0.70;;;19.10;90.40;;;;;;5052367;28;20213;-66
2023/07/19 02:24:35;;;;;;;0.85;0.75;;;19.10;90.40;;;;;;5032399;28;20205;-66
2023/07/19 02:27:03;;;;;;;0.75;0.75;;;19.10;90.40;;;;;;5034852;28;20244;-66
2023/07/19 02:29:30;;;;;;;1.25;1.15;;;19.10;90.40;;;;;;5052027;28;20221;-66
2023/07/19 02:31:58;;;;;;;0.98;0.90;;;19.20;90.50;;;;;;5052123;28;20195;-66
2023/07/19 02:34:25;;;;;;;0.95;0.95;;;19.20;90.50;;;;;;5051814;28;20633;-66
2023/07/19 02:36:52;;;;;;;0.85;0.85;;;19.10;90.50;;;;;;5052119;28;20194;-66
2023/07/19 02:39:20;;;;;;;0.80;0.80;;;19.10;90.60;;;;;;5051899;28;20197;-66
2023/07/19 02:41:47;;;;;;;1.00;0.90;;;19.10;90.70;;;;;;5052239;28;20331;-66
2023/07/19 02:44:15;;;;;;;2.38;1.20;;;19.10;90.80;;;;;;5051623;28;20190;-66
2023/07/19 02:46:42;;;;;;;1.75;1.45;;;19.10;90.80;;;;;;5051692;28;20622;-66
2023/07/19 02:49:12;;;;;;;1.73;1.60;;;19.10;90.90;;;;;;5047122;28;20668;-66
2023/07/19 02:51:39;;;;;;;1.50;1.30;;;19.10;91.00;;;;;;5034290;28;20208;-67
2023/07/19 02:54:07;;;;;;;1.40;1.30;;;19.10;91.00;;;;;;5051724;28;20576;-66
2023/07/19 02:56:34;;;;;;;1.73;1.55;;;19.20;91.10;;;;;;5040962;28;20198;-67
2023/07/19 02:59:01;;;;;;;1.40;1.30;;;19.20;91.00;;;;;;5033401;28;20205;-66
2023/07/19 03:01:30;;;;;;;1.27;1.17;;;19.20;91.00;;;;;;5037547;28;20248;-67
2023/07/19 03:03:59;;;;;;;1.58;1.48;;;19.20;91.10;;;;;;5048824;28;20198;-67
2023/07/19 03:06:28;;;;;;;1.30;1.15;;;19.20;91.20;;;;;;5048499;28;20370;-67
2023/07/19 03:08:55;;;;;;;1.30;1.20;;;19.20;91.20;;;;;;5051128;28;20186;-67
2023/07/19 03:11:23;;;;;;;1.17;1.02;;;19.20;91.20;;;;;;5051301;28;20194;-67
2023/07/19 03:13:50;;;;;;;1.20;1.10;;;19.20;91.20;;;;;;5032829;28;20229;-67
2023/07/19 03:16:17;;;;;;;1.10;1.00;;;19.20;91.30;;;;;;5037015;28;20241;-66
2023/07/19 03:18:44;;;;;;;0.90;0.90;;;19.20;91.30;;;;;;5031885;28;20201;-67
2023/07/19 03:21:11;;;;;;;2.25;0.90;;;19.20;91.30;;;;;;5050347;28;20202;-67
2023/07/19 03:23:40;;;;;;;1.05;0.80;;;19.20;91.40;;;;;;5051224;28;20297;-67
2023/07/19 03:26:07;;;;;;;1.92;0.90;;;19.20;91.40;;;;;;5051002;28;20678;-68
2023/07/19 03:28:35;;;;;;;1.33;1.10;;;19.20;91.50;;;;;;5032582;28;20309;-67
2023/07/19 03:31:02;;;;;;;1.00;1.00;;;19.20;91.70;;;;;;5050160;28;20735;-67
2023/07/19 03:33:30;;;;;;;1.73;1.25;;;19.20;91.70;;;;;;5032373;28;20218;-67
2023/07/19 03:35:57;;;;;;;3.85;1.60;;;19.20;91.80;;;;;;5032307;28;20297;-67
2023/07/19 03:38:24;;;;;;;2.28;1.30;;;19.20;91.90;;;;;;5033695;28;20213;-68
2023/07/19 03:41:04;;;;;;;3.20;1.35;;;19.20;92.00;;;;;;5033000;28;20291;-67
2023/07/19 03:43:31;;;;;;;1.73;1.35;;;19.30;92.10;;;;;;5031420;28;20312;-68
2023/07/19 03:45:58;;;;;;;1.80;1.50;;;19.20;92.10;;;;;;5033284;28;20649;-68
2023/07/19 03:48:26;;;;;;;1.63;1.52;;;19.20;92.20;;;;;;5024490;28;20559;-68
2023/07/19 03:50:57;;;;;;;1.30;1.20;;;19.20;92.30;;;;;;5026510;28;20202;-68
2023/07/19 03:53:25;;;;;;;1.27;1.17;;;19.30;92.40;;;;;;5034546;28;20221;-67
2023/07/19 03:55:54;;;;;;;1.20;1.10;;;19.30;92.50;;;;;;5032406;28;20202;-67
2023/07/19 03:58:24;;;;;;;3.05;1.30;;;19.30;92.50;;;;;;5032278;28;20221;-67
2023/07/19 04:00:52;;;;;;;1.30;1.17;;;19.30;92.60;;;;;;5032502;28;20296;-67
2023/07/19 04:03:19;;;;;;;0.90;0.90;;;19.30;92.70;;;;;;5049927;28;20206;-67
2023/07/19 04:05:46;;;;;;;1.10;1.00;;;19.30;92.80;;;;;;5032031;28;20550;-67
2023/07/19 04:08:14;;;;;;;1.25;1.15;;;19.30;92.80;;;;;;5047201;28;20190;-67
2023/07/19 04:10:42;;;;;;;1.58;1.23;;;19.30;92.90;;;;;;5049993;28;20197;-67
2023/07/19 04:13:10;;;;;;;1.35;1.20;;;19.30;93.10;;;;;;5035992;28;20585;-67
2023/07/19 04:15:40;;;;;;;1.00;1.00;;;19.30;93.20;;;;;;5031271;28;20202;-67
2023/07/19 04:18:08;;;;;;;1.35;1.20;;;19.40;93.30;;;;;;5033824;28;20682;-67
2023/07/19 04:20:37;;;;;;;1.08;0.98;;;19.30;93.30;;;;;;5029390;28;20193;-67
2023/07/19 04:23:04;;;;;;;0.93;0.90;;;19.30;93.30;;;;;;5049915;28;20280;-67
2023/07/19 04:25:34;;;;;;;1.83;1.20;;;19.40;93.30;;;;;;5029120;28;20210;-67
2023/07/19 04:28:02;;;;;;;1.02;0.93;;;19.40;93.30;;;;;;5034779;28;20235;-67
2023/07/19 04:30:29;;;;;;;0.88;0.88;;;19.30;93.10;;;;;;5050043;28;20205;-67
2023/07/19 04:32:58;;;;;;;0.80;0.80;;;19.40;92.90;;;;;;5033111;28;20220;-67
2023/07/19 04:35:25;;;;;;;1.65;0.80;;;19.50;92.80;;;;;;5031528;28;20202;-67
2023/07/19 04:37:53;;;;;;;0.85;0.85;;;19.50;92.70;;;;;;5049445;28;20197;-67
2023/07/19 04:40:20;;;;;;;1.45;1.17;;;19.50;92.60;;;;;;5031513;28;20213;-67
2023/07/19 04:42:47;;;;;;;0.80;0.80;;;19.50;92.40;;;;;;5032394;28;20240;-68
2023/07/19 04:45:17;;;;;;;0.60;0.60;;;19.50;92.20;;;;;;5031678;28;20225;-67
2023/07/19 04:47:44;;;;;;;0.95;0.90;;;19.60;92.20;;;;;;5027458;28;20203;-67
2023/07/19 04:50:13;;;;;;;0.80;0.80;;;19.60;92.00;;;;;;5030265;28;21520;-68
2023/07/19 04:52:40;;;;;;;1.10;1.00;;;19.60;91.90;;;;;;5038288;28;20198;-68
2023/07/19 04:55:08;;;;;;;1.00;1.00;;;19.70;91.60;;;;;;5025687;28;20207;-68
2023/07/19 04:57:36;;;;;;;0.93;0.80;;;19.70;91.50;;;;;;5036622;28;20278;-67
2023/07/19 05:00:05;;;;;;;1.00;1.00;;;19.80;91.50;;;;;;5048845;28;20190;-67
2023/07/19 05:02:32;;;;;;;1.00;1.00;;;19.80;91.40;;;;;;5030666;28;20210;-67
2023/07/19 05:05:00;;;;;;;0.93;0.93;;;19.80;91.30;;;;;;5049116;28;20197;-67
2023/07/19 05:07:28;;;;;;;3.03;1.10;;;19.90;91.30;;;;;;5030869;28;20661;-67
2023/07/19 05:09:56;;;;;;;0.70;0.70;;;19.90;91.20;;;;;;5030627;28;20661;-67
2023/07/19 05:12:23;;;;;;;0.80;0.80;;;19.90;91.10;;;;;;5033183;28;20255;-67
2023/07/19 05:14:50;;;;;;;0.90;0.90;;;19.90;91.10;;;;;;5030853;28;20392;-67
2023/07/19 05:17:17;;;;;;;0.95;0.95;;;19.90;91.10;;;;;;5029742;28;20661;-68
2023/07/19 05:19:45;;;;;;;0.80;0.80;;;20.00;91.20;;;;;;5037191;28;20256;-66
2023/07/19 05:22:12;;;;;;;1.98;1.00;;;20.00;91.20;;;;;;5030642;28;20551;-67
2023/07/19 05:24:41;;;;;;;1.90;1.02;;;20.00;91.20;;;;;;5030695;28;20203;-67
2023/07/19 05:27:08;;;;;;;0.73;0.73;;;20.00;91.20;;;;;;5049629;28;20189;-67
2023/07/19 05:29:35;;;;;;;0.80;0.80;;;20.00;91.20;;;;;;5031128;28;20720;-67
2023/07/19 05:32:02;;;;;;;0.80;0.80;;;20.00;91.20;;;;;;5030517;28;20213;-67
2023/07/19 05:34:29;;;;;;;1.05;1.02;;;20.00;91.20;;;;;;5049003;28;20213;-67
2023/07/19 05:36:57;;;;;;;1.10;0.90;;;20.00;91.20;;;;;;5048821;28;20262;-67
2023/07/19 05:39:25;;;;;;;0.85;0.85;;;20.10;91.20;;;;;;5050875;28;20209;-66
2023/07/19 05:41:54;;;;;;;0.93;0.93;;;20.00;91.10;;;;;;5070722;28;20222;-65
2023/07/19 05:44:21;;;;;;;1.58;0.82;;;20.10;91.20;;;;;;5069214;28;20257;-66
2023/07/19 05:46:48;;;;;;;0.82;0.82;;;20.20;91.30;;;;;;5050293;28;20258;-67
2023/07/19 05:49:15;;;;;;;0.90;0.90;;;20.20;91.30;;;;;;5050902;28;20213;-66
2023/07/19 05:51:43;;;;;;;0.80;0.80;;;20.20;91.40;;;;;;5049586;28;20190;-66
2023/07/19 05:54:10;;;;;;;1.13;0.90;;;20.20;91.40;;;;;;5049716;28;20214;-66
2023/07/19 05:56:37;;;;;;;0.90;0.90;;;20.30;91.60;;;;;;5053564;28;20594;-67
2023/07/19 05:59:06;;;;;;;1.25;1.00;;;20.30;91.60;;;;;;5052795;28;20247;-66
2023/07/19 06:01:33;;;;;;;1.00;0.80;;;20.30;91.80;;;;;;5053233;28;20194;-67
2023/07/19 06:04:00;;;;;;;1.00;1.00;;;20.30;91.80;;;;;;5029676;28;21440;-62
2023/07/19 06:06:27;;;;;;;2.25;1.00;;;20.30;91.90;;;;;;5046320;28;20874;-65
2023/07/19 06:08:54;;;;;;;2.22;0.80;;;20.30;92.00;;;;;;5048952;28;20220;-64
2023/07/19 06:11:22;;;;;;;1.58;1.02;;;20.30;92.20;;;;;;5049808;28;20277;-64
2023/07/19 06:13:49;;;;;;;0.88;0.88;;;20.20;92.30;;;;;;5030209;28;20731;-64
2023/07/19 06:16:18;;;;;;;0.90;0.90;;;20.20;92.30;;;;;;5046062;28;20566;-64
2023/07/19 06:18:45;;;;;;;0.75;0.75;;;20.30;92.40;;;;;;5042919;28;20200;-64
2023/07/19 06:21:12;;;;;;;1.10;0.80;;;20.30;92.40;;;;;;5042451;28;20206;-64
2023/07/19 06:23:39;;;;;;;0.82;0.82;;;20.30;92.50;;;;;;5023134;28;20205;-64
2023/07/19 06:26:07;;;;;;;0.90;0.90;;;20.30;92.60;;;;;;5046869;28;20370;-64
2023/07/19 06:28:35;;;;;;;1.10;1.10;;;20.30;92.60;;;;;;5046403;28;20679;-64
2023/07/19 06:31:02;;;;;;;1.00;0.80;;;20.30;92.60;;;;;;5044330;28;20197;-64
2023/07/19 06:33:30;;;;;;;1.55;0.95;;;20.30;92.60;;;;;;5048706;28;20248;-64
2023/07/19 06:35:58;;;;;;;0.93;0.93;;;20.40;92.70;;;;;;5049562;28;20193;-65
2023/07/19 06:38:26;;;;;;;0.90;0.90;;;20.30;92.60;;;;;;5049404;28;20209;-64
2023/07/19 06:40:53;;;;;;;0.95;0.95;;;20.40;92.70;;;;;;5049624;28;20252;-64
2023/07/19 06:43:20;;;;;;;0.80;0.80;;;20.30;92.70;;;;;;5048518;28;20248;-64
2023/07/19 06:45:49;;;;;;;0.60;0.60;;;20.40;92.70;;;;;;5032405;28;20208;-64
2023/07/19 06:48:16;;;;;;;1.45;0.70;;;20.30;92.70;;;;;;5047315;28;20292;-64
2023/07/19 06:50:44;;;;;;;0.60;0.60;;;20.30;92.70;;;;;;5045296;28;20198;-65
2023/07/19 06:53:11;;;;;;;0.70;0.70;;;20.30;92.80;;;;;;5030393;28;20728;-64
2023/07/19 06:55:40;;;;;;;1.65;1.00;;;20.40;92.80;;;;;;5050395;28;20198;-65
2023/07/19 06:58:07;;;;;;;0.90;0.90;;;20.30;92.90;;;;;;5049752;28;20642;-64
2023/07/19 07:00:34;;;;;;;0.80;0.80;;;20.30;92.90;;;;;;5047196;28;20201;-65
2023/07/19 07:03:03;;;;;;;1.38;0.90;;;20.30;92.90;;;;;;5046392;28;20557;-64
2023/07/19 07:12:15;;;;;;;0.90;0.90;;;20.40;93.10;;;;;;5048398;28;20197;-64
2023/07/19 07:15:06;;;;;;;1.70;0.90;;;20.40;93.10;;;;;;5038420;28;20209;-64
2023/07/19 07:18:04;;;;;;;0.80;0.80;;;20.40;93.20;;;;;;5044427;28;20198;-65
2023/07/19 07:20:40;;;;;;;0.88;0.88;;;20.30;93.20;;;;;;5045631;28;20614;-64
2023/07/19 07:23:09;;;;;;;0.80;0.77;;;20.40;93.40;;;;;;5039228;28;20198;-65
2023/07/19 07:25:36;;;;;;;0.90;0.90;;;20.40;93.40;;;;;;5047654;28;20266;-64
2023/07/19 07:28:04;;;;;;;0.93;0.93;;;20.30;93.40;;;;;;5030908;28;20743;-64
2023/07/19 07:30:31;;;;;;;0.70;0.70;;;20.30;93.50;;;;;;5049090;28;20190;-65
2023/07/19 07:32:59;;;;;;;1.73;0.90;;;20.40;93.60;;;;;;5048689;28;20617;-65
2023/07/19 07:35:26;;;;;;;1.85;0.82;;;20.40;93.70;;;;;;5049372;28;20557;-64
2023/07/19 07:37:53;;;;;;;0.95;0.82;;;20.40;93.70;;;;;;5030727;28;20202;-64
2023/07/19 07:40:22;;;;;;;0.88;0.88;;;20.50;93.80;;;;;;5048671;28;20194;-64
2023/07/19 07:42:49;;;;;;;1.00;1.00;;;20.50;93.80;;;;;;5049160;28;20197;-65
2023/07/19 07:45:17;;;;;;;0.98;0.88;;;20.50;93.80;;;;;;5048779;28;20190;-65
2023/07/19 07:47:44;;;;;;;0.60;0.60;;;20.50;93.90;;;;;;5044081;28;20202;-64
2023/07/19 07:50:12;;;;;;;0.63;0.63;;;20.50;93.90;;;;;;5035876;28;20712;-65
2023/07/19 07:52:40;;;;;;;2.50;1.02;;;20.50;93.90;;;;;;5015675;28;20573;-65
2023/07/19 07:55:08;;;;;;;1.80;0.65;;;20.50;94.00;;;;;;5049235;28;20220;-65
2023/07/19 07:57:37;;;;;;;0.73;0.73;;;20.50;94.00;;;;;;5048359;28;20194;-65
2023/07/19 08:00:07;;;;;;;0.73;0.73;;;20.60;94.10;;;;;;5048786;28;20289;-65
2023/07/19 08:02:38;;;;;;;0.90;0.90;;;20.60;94.20;;;;;;5048033;28;20182;-65
2023/07/19 08:05:06;;;;;;;2.03;0.80;;;20.60;94.20;;;;;;5048739;28;20285;-64
2023/07/19 08:07:33;;;;;;;3.55;1.27;;;20.50;94.30;;;;;;5048132;28;20229;-64
2023/07/19 08:10:00;;;;;;;1.08;0.98;;;20.50;94.40;;;;;;5046089;28;20255;-64
2023/07/19 08:12:27;;;;;;;0.95;0.93;;;20.50;94.50;;;;;;5048075;28;20198;-65
2023/07/19 08:14:56;;;;;;;1.13;0.80;;;20.50;94.60;;;;;;5045230;28;20207;-64
2023/07/19 08:17:23;;;;;;;1.77;1.10;;;20.40;94.60;;;;;;5046804;28;20255;-64
2023/07/19 08:19:50;;;;;;;0.82;0.80;;;20.40;94.80;;;;;;5044806;28;20198;-64
2023/07/19 08:22:27;;;;;;;0.95;0.90;;;20.40;94.90;;;;;;5045430;28;20251;-64
2023/07/19 08:24:55;;;;;;;2.00;1.00;;;20.40;95.00;;;;;;5045721;28;20538;-64
2023/07/19 08:27:24;;;;;;;1.75;1.10;;;20.40;95.10;;;;;;5047034;28;20187;-64
2023/07/19 08:29:52;;;;;;;1.08;1.00;;;20.40;95.20;;;;;;5041525;28;20284;-65
2023/07/19 08:32:20;;;;;;;0.80;0.80;;;20.40;95.30;;;;;;5047229;28;20271;-65
2023/07/19 08:34:47;;;;;;;3.70;1.05;;;20.40;95.30;;;;;;5019693;28;20551;-65
2023/07/19 08:37:14;;;;;;;1.30;1.20;;;20.50;95.50;;;;;;5029767;28;20612;-65
2023/07/19 08:39:42;;;;;;;1.20;1.10;;;20.50;95.60;;;;;;5030007;28;20546;-65
2023/07/19 08:42:09;;;;;;;0.93;0.90;;;20.50;95.60;;;;;;5048072;28;20209;-65
2023/07/19 08:44:38;;;;;;;1.00;0.90;;;20.50;95.70;;;;;;5048053;28;20751;-65
2023/07/19 08:47:07;;;;;;;1.42;1.00;;;20.50;95.70;;;;;;5047330;28;20201;-64
2023/07/19 08:49:37;;;;;;;0.80;0.80;;;20.50;95.80;;;;;;5047335;28;20271;-64
2023/07/19 08:52:07;;;;;;;0.95;0.80;;;20.50;95.90;;;;;;5032711;28;20198;-64
2023/07/19 08:54:34;;;;;;;0.80;0.80;;;20.50;96.10;;;;;;5029305;28;20214;-65
2023/07/19 08:57:04;;;;;;;0.93;0.93;;;20.50;96.20;;;;;;5047324;28;20201;-65
2023/07/19 08:59:32;;;;;;;0.88;0.88;;;20.50;96.20;;;;;;5047129;28;20251;-64
2023/07/19 09:01:59;;;;;;;0.90;0.90;;;20.50;96.30;;;;;;5045086;28;20603;-64
2023/07/19 09:04:27;;;;;;;1.95;1.00;;;20.50;96.40;;;;;;5028782;28;20198;-64
2023/07/19 09:06:55;;;;;;;1.55;0.90;;;20.50;96.40;;;;;;5039237;28;20194;-64
2023/07/19 09:09:22;;;;;;;0.70;0.70;;;20.50;96.50;;;;;;5047246;28;20194;-64
2023/07/19 09:11:52;;;;;;;0.68;0.68;;;20.50;96.50;;;;;;5029434;28;20201;-64
2023/07/19 09:14:19;;;;;;;1.45;1.23;;;20.50;96.60;;;;;;5046750;28;20295;-64
2023/07/19 09:16:47;;;;;;;2.05;1.00;;;20.50;96.60;;;;;;5045512;28;20272;-64
2023/07/19 09:19:14;;;;;;;1.00;0.90;;;20.60;96.60;;;;;;5046303;28;20198;-64
2023/07/19 09:21:43;;;;;;;1.15;1.08;;;20.60;96.60;;;;;;5046191;28;20539;-64
2023/07/19 09:24:14;;;;;;;0.75;0.75;;;20.60;96.70;;;;;;5046655;28;20201;-64
2023/07/19 09:26:48;;;;;;;1.10;1.10;;;20.60;96.70;;;;;;5037436;28;20185;-65
2023/07/19 09:29:15;;;;;;;0.82;0.82;;;20.60;96.70;;;;;;5047661;28;20201;-64
2023/07/19 09:31:56;;;;;;;0.80;0.80;;;20.70;96.70;;;;;;5051833;28;20292;-64
2023/07/19 09:34:23;;;;;;;1.20;0.85;;;20.70;96.60;;;;;;5049904;28;20304;-64
2023/07/19 09:36:52;;;;;;;1.00;0.95;;;20.70;96.50;;;;;;5051434;28;20196;-64
2023/07/19 09:39:21;;;;;;;1.13;1.00;;;20.70;96.40;;;;;;5049718;28;20565;-64
2023/07/19 09:41:49;;;;;;;1.30;0.80;;;20.70;96.30;;;;;;5032628;28;20570;-64
2023/07/19 09:44:16;;;;;;;1.55;1.02;;;20.80;96.30;;;;;;5050262;28;20208;-64
2023/07/19 09:46:45;;;;;;;1.52;1.00;;;20.80;96.20;;;;;;5050398;28;20594;-64
2023/07/19 09:49:13;;;;;;;0.75;0.75;;;20.80;96.10;;;;;;5048030;28;20604;-64
2023/07/19 09:51:42;;;;;;;0.70;0.70;;;20.80;96.10;;;;;;5049714;28;20190;-64
2023/07/19 09:54:10;;;;;;;1.10;1.00;;;20.80;96.00;;;;;;5031925;28;20287;-63
2023/07/19 09:56:40;;;;;;;0.90;0.90;;;20.90;95.90;;;;;;5050899;28;20200;-64
2023/07/19 09:59:11;;;;;;;2.55;1.17;;;20.90;95.90;;;;;;5035698;28;20198;-63
2023/07/19 10:01:39;;;;;;;1.17;1.02;;;20.90;95.60;;;;;;5050850;28;20190;-64
2023/07/19 10:04:22;;;;;;;2.10;0.90;;;20.80;95.40;;;;;;5051181;28;20201;-65
2023/07/19 10:06:50;;;;;;;1.20;1.10;;;20.80;95.40;;;;;;5050742;28;20194;-63
2023/07/19 10:09:31;;;;;;;3.22;0.93;;;20.70;95.20;;;;;;5048113;28;20218;-63
2023/07/19 10:12:08;;;;;;;0.80;0.80;;;20.70;95.30;;;;;;5045858;28;20198;-63
2023/07/19 10:14:36;;;;;;;0.82;0.82;;;20.70;95.30;;;;;;5032883;28;20220;-63
2023/07/19 10:17:06;;;;;;;0.90;0.90;;;20.60;95.20;;;;;;5049753;28;20194;-63
2023/07/19 10:19:35;;;;;;;0.70;0.70;;;20.60;95.20;;;;;;5049918;28;20608;-63
2023/07/19 10:22:04;;;;;;;0.98;0.98;;;20.60;95.20;;;;;;5049488;28;20194;-63
2023/07/19 10:24:32;;;;;;;0.70;0.70;;;20.60;95.20;;;;;;5042663;28;20551;-63
2023/07/19 10:27:05;;;;;;;0.60;0.60;;;20.70;95.30;;;;;;5048664;28;20271;-63
2023/07/19 10:29:39;;;;;;;0.80;0.75;;;20.70;95.20;;;;;;5050188;28;20206;-63
2023/07/19 10:32:07;;;;;;;0.80;0.80;;;20.70;95.20;;;;;;5049574;28;20630;-63
2023/07/19 10:34:35;;;;;;;2.63;0.98;;;20.70;95.20;;;;;;5046945;28;20565;-63
2023/07/19 10:37:03;;;;;;;1.08;1.08;;;20.80;95.20;;;;;;5050204;28;20280;-63
2023/07/19 10:39:30;;;;;;;1.33;1.15;;;20.70;95.00;;;;;;5050925;28;20534;-63
2023/07/19 10:41:58;;;;;;;1.15;1.05;;;20.70;95.10;;;;;;5049682;28;20275;-63
2023/07/19 10:44:27;;;;;;;1.10;1.00;;;20.70;95.20;;;;;;5050272;28;20542;-63
2023/07/19 10:46:55;;;;;;;0.90;0.90;;;20.60;95.10;;;;;;5049607;28;20197;-62
2023/07/19 10:49:23;;;;;;;0.70;0.70;;;20.60;95.10;;;;;;5046316;28;20205;-63
2023/07/19 10:51:54;;;;;;;0.90;0.90;;;20.60;95.20;;;;;;5049730;28;20265;-63
2023/07/19 10:54:21;;;;;;;0.90;0.90;;;20.60;95.20;;;;;;5032208;28;20256;-63
2023/07/19 10:56:50;;;;;;;0.98;0.98;;;20.70;95.30;;;;;;5050101;28;20194;-63
2023/07/19 10:59:17;;;;;;;0.93;0.90;;;20.60;95.30;;;;;;5049800;28;20208;-63
2023/07/19 11:01:48;;;;;;;1.45;1.10;;;20.70;95.30;;;;;;5050187;28;20289;-63
2023/07/19 11:04:18;;;;;;;0.90;0.90;;;20.70;95.40;;;;;;5037671;28;20652;-63
2023/07/19 11:06:56;;;;;;;1.00;0.93;;;20.60;95.40;;;;;;5049570;28;20194;-64
2023/07/19 11:09:24;;;;;;;0.95;0.95;;;20.60;95.50;;;;;;5050181;28;20198;-63
2023/07/19 11:11:51;;;;;;;2.72;1.58;;;20.70;95.60;;;;;;5032195;28;20255;-63
2023/07/19 11:14:29;;;;;;;1.30;1.20;;;20.70;95.70;;;;;;5049595;28;20213;-64
2023/07/19 11:16:58;;;;;;;1.10;1.00;;;20.70;95.80;;;;;;5047641;28;20189;-63
2023/07/19 11:19:35;;;;;;;1.20;1.20;;;20.80;96.00;;;;;;5049485;28;20197;-64
2023/07/19 11:22:03;;;;;;;2.88;1.25;;;20.70;96.00;;;;;;5049766;28;20206;-64
2023/07/19 11:24:40;;;;;;;1.00;1.00;;;20.80;96.10;;;;;;5034646;28;20209;-64
2023/07/19 11:27:09;;;;;;;1.38;1.25;;;20.80;96.10;;;;;;5049888;28;20189;-64
2023/07/19 11:29:36;;;;;;;1.90;0.88;;;20.80;96.10;;;;;;5049330;28;20242;-64
2023/07/19 11:32:21;;;;;;;2.08;0.80;;;20.70;96.10;;;;;;5048679;28;20201;-64
2023/07/19 11:34:50;;;;;;;0.90;0.90;;;20.70;96.20;;;;;;5029252;28;20225;-64
2023/07/19 11:37:19;;;;;;;2.67;1.20;;;20.70;96.20;;;;;;5048672;28;20557;-64
2023/07/19 11:39:48;;;;;;;0.90;0.90;;;20.70;96.30;;;;;;5049877;28;20225;-64
2023/07/19 11:42:15;;;;;;;0.80;0.80;;;20.70;96.40;;;;;;5048970;28;20568;-64
2023/07/19 11:44:46;;;;;;;0.80;0.80;;;20.70;96.50;;;;;;5049543;28;20553;-64
2023/07/19 11:47:13;;;;;;;1.05;1.00;;;20.70;96.50;;;;;;5047656;28;20648;-64
2023/07/19 11:49:41;;;;;;;0.75;0.60;;;20.70;96.50;;;;;;5030617;28;20193;-64
2023/07/19 11:52:09;;;;;;;0.80;0.80;;;20.70;96.60;;;;;;5044488;28;20209;-64
2023/07/19 11:54:37;;;;;;;0.88;0.80;;;20.70;96.60;;;;;;5048874;28;20194;-64
2023/07/19 11:57:04;;;;;;;0.70;0.70;;;20.70;96.60;;;;;;5048978;28;20565;-64
2023/07/19 11:59:31;;;;;;;0.80;0.80;;;20.70;96.70;;;;;;5031178;28;20346;-64
2023/07/19 12:01:59;;;;;;;0.82;0.75;;;20.80;96.80;;;;;;5047208;28;20616;-64
2023/07/19 12:04:28;;;;;;;1.48;1.25;;;20.80;96.70;;;;;;5030694;28;20597;-64
2023/07/19 12:06:56;;;;;;;0.80;0.80;;;20.70;96.50;;;;;;5048633;28;20653;-64
2023/07/19 12:09:24;;;;;;;0.80;0.80;;;20.70;96.50;;;;;;5049457;28;20611;-64
2023/07/19 12:11:51;;;;;;;1.25;1.00;;;20.70;96.50;;;;;;5048841;28;20205;-64
2023/07/19 12:14:18;;;;;;;1.00;0.85;;;20.70;96.80;;;;;;5047288;28;20255;-64
2023/07/19 12:16:45;;;;;;;0.70;0.70;;;20.60;96.50;;;;;;5048381;28;20677;-64
2023/07/19 12:19:14;;;;;;;0.60;0.60;;;20.60;96.50;;;;;;5029893;28;20561;-64
2023/07/19 12:21:42;;;;;;;0.90;0.90;;;20.60;96.50;;;;;;5043274;28;20197;-64
2023/07/19 12:24:10;;;;;;;1.75;0.70;;;20.60;96.40;;;;;;5030149;28;20535;-64
2023/07/19 12:26:37;;;;;;;0.80;0.80;;;20.60;96.30;;;;;;5048889;28;20244;-64
2023/07/19 12:29:04;;;;;;;0.60;0.60;;;20.60;96.20;;;;;;5047754;28;20198;-64
2023/07/19 12:31:31;;;;;;;0.68;0.68;;;20.60;96.20;;;;;;5048942;28;20577;-64
2023/07/19 12:33:58;;;;;;;0.75;0.75;;;20.60;96.10;;;;;;5044353;28;20204;-64
2023/07/19 12:36:25;;;;;;;0.90;0.90;;;20.60;95.60;;;;;;5048062;28;20350;-64
2023/07/19 12:38:53;;;;;;;0.73;0.73;;;20.60;95.40;;;;;;5045563;28;20526;-64
2023/07/19 12:41:22;;;;;;;3.03;1.02;;;20.60;95.20;;;;;;5048116;28;20217;-64
2023/07/19 12:43:50;;;;;;;0.70;0.70;;;20.60;95.10;;;;;;5047943;28;20198;-64
2023/07/19 12:46:18;;;;;;;1.02;0.98;;;20.60;94.90;;;;;;5043307;28;20509;-63
2023/07/19 12:48:48;;;;;;;0.80;0.80;;;20.50;94.70;;;;;;5046965;28;20669;-63
2023/07/19 12:51:15;;;;;;;0.88;0.80;;;20.50;94.60;;;;;;5047812;28;20452;-63
2023/07/19 12:53:42;;;;;;;0.80;0.80;;;20.50;94.60;;;;;;5046990;28;20210;-63
2023/07/19 12:56:09;;;;;;;0.60;0.60;;;20.50;94.40;;;;;;5047924;28;20228;-62
2023/07/19 12:58:38;;;;;;;0.70;0.70;;;20.50;94.40;;;;;;5044239;28;20194;-62
2023/07/19 13:01:05;;;;;;;0.60;0.60;;;20.50;94.40;;;;;;5041116;28;20473;-62